Time;durP1;ratioP1;P1;durP2;ratioP2;P2;SDS_P1;SDS_P2;PMS_P1;PMS_P2;Temp;Humidity;BMP_temperature;BMP_pressure;BME280_temperature;BME280_humidity;BME280_pressure;Samples;Min_cycle;Max_cycle;Signal;HPM_P1;HPM_P2
2022/03/31 00:00:51;;;;;;;0.20;0.20;;;10.20;99.90;;;;;;5032666;28;20440;-74
2022/03/31 00:03:19;;;;;;;2.72;2.53;;;10.20;99.90;;;;;;5032797;28;20025;-74
2022/03/31 00:05:46;;;;;;;0.20;0.20;;;10.10;99.90;;;;;;5031440;28;20044;-74
2022/03/31 00:08:14;;;;;;;0.20;0.20;;;10.10;99.90;;;;;;5015188;28;20035;-74
2022/03/31 00:10:52;;;;;;;0.20;0.20;;;10.10;99.90;;;;;;5032714;28;20033;-75
2022/03/31 00:13:23;;;;;;;0.50;0.50;;;10.20;99.90;;;;;;5032763;28;20489;-75
2022/03/31 00:15:49;;;;;;;1.13;1.07;;;10.20;99.90;;;;;;5032411;28;20079;-74
2022/03/31 00:18:16;;;;;;;0.65;0.65;;;10.20;99.90;;;;;;5032482;28;20021;-74
2022/03/31 00:20:43;;;;;;;0.20;0.20;;;10.30;99.90;;;;;;5032670;28;20061;-74
2022/03/31 00:23:08;;;;;;;0.20;0.20;;;10.20;99.90;;;;;;5032556;28;20128;-74
2022/03/31 00:25:35;;;;;;;0.20;0.20;;;10.20;99.90;;;;;;5032264;28;20022;-75
2022/03/31 00:28:03;;;;;;;0.20;0.20;;;10.00;99.90;;;;;;5032309;28;20056;-74
2022/03/31 00:30:29;;;;;;;0.80;0.77;;;10.10;99.90;;;;;;5031298;28;20033;-74
2022/03/31 00:32:55;;;;;;;0.20;0.20;;;10.10;99.90;;;;;;5032456;28;20371;-74
2022/03/31 00:35:21;;;;;;;2.30;2.20;;;10.10;99.90;;;;;;5014569;28;20032;-74
2022/03/31 00:37:47;;;;;;;0.30;0.30;;;10.10;99.90;;;;;;5032090;28;20025;-75
2022/03/31 00:40:18;;;;;;;0.20;0.20;;;10.00;99.90;;;;;;5030962;28;20021;-74
2022/03/31 00:42:54;;;;;;;1.17;1.07;;;10.00;99.90;;;;;;5032205;28;20049;-74
2022/03/31 00:45:26;;;;;;;0.20;0.20;;;10.10;99.90;;;;;;4998027;28;20462;-74
2022/03/31 00:47:54;;;;;;;0.30;0.30;;;10.10;99.90;;;;;;5032142;28;20080;-74
2022/03/31 00:50:22;;;;;;;0.20;0.20;;;10.00;99.90;;;;;;5014629;28;20033;-74
2022/03/31 00:52:48;;;;;;;2.08;1.98;;;10.00;99.90;;;;;;5030407;28;20033;-74
2022/03/31 00:55:16;;;;;;;0.20;0.20;;;9.90;99.90;;;;;;5031958;28;20485;-74
2022/03/31 00:57:43;;;;;;;0.20;0.20;;;9.90;99.90;;;;;;5031822;28;20029;-74
2022/03/31 01:02:41;;;;;;;0.20;0.20;;;9.80;99.90;;;;;;5049038;28;20067;-72
2022/03/31 01:05:08;;;;;;;0.20;0.20;;;9.90;99.90;;;;;;5052089;28;20021;-72
2022/03/31 01:07:35;;;;;;;0.22;0.22;;;9.80;99.90;;;;;;5052048;28;20021;-72
2022/03/31 01:10:01;;;;;;;2.17;1.02;;;9.80;99.90;;;;;;5034365;28;20079;-72
2022/03/31 01:12:27;;;;;;;0.20;0.20;;;9.70;99.90;;;;;;5034340;28;20029;-72
2022/03/31 01:15:17;;;;;;;0.38;0.38;;;9.80;99.90;;;;;;5051805;28;20021;-72
2022/03/31 01:17:45;;;;;;;0.20;0.20;;;9.80;99.90;;;;;;5033865;28;20033;-72
2022/03/31 01:20:20;;;;;;;0.55;0.55;;;9.80;99.90;;;;;;5052148;28;20408;-72
2022/03/31 01:22:47;;;;;;;0.20;0.20;;;9.90;99.90;;;;;;5052137;28;20032;-71
2022/03/31 01:25:13;;;;;;;0.20;0.20;;;9.90;99.90;;;;;;5052197;28;20028;-72
2022/03/31 01:27:43;;;;;;;0.63;0.63;;;9.90;99.90;;;;;;5051828;28;20070;-72
2022/03/31 01:30:13;;;;;;;0.20;0.20;;;9.90;99.90;;;;;;5034042;28;20108;-72
2022/03/31 01:32:39;;;;;;;0.20;0.20;;;9.80;99.90;;;;;;5051761;28;20027;-72
2022/03/31 01:35:06;;;;;;;0.25;0.25;;;9.80;99.90;;;;;;5051772;28;20535;-72
2022/03/31 01:37:32;;;;;;;2.17;0.98;;;9.70;99.90;;;;;;5052049;28;20441;-72
2022/03/31 01:39:59;;;;;;;0.20;0.20;;;9.90;99.90;;;;;;5033883;28;20103;-72
2022/03/31 01:42:28;;;;;;;0.20;0.20;;;9.70;99.90;;;;;;5033834;28;20044;-72
2022/03/31 01:44:55;;;;;;;0.20;0.20;;;9.70;99.90;;;;;;5051323;28;20102;-72
2022/03/31 01:47:21;;;;;;;0.30;0.30;;;9.70;99.90;;;;;;5050426;28;20109;-72
2022/03/31 01:49:46;;;;;;;1.40;1.30;;;9.60;99.90;;;;;;5033682;28;20112;-72
2022/03/31 01:52:12;;;;;;;0.20;0.20;;;9.50;99.90;;;;;;5033724;28;20395;-72
2022/03/31 01:54:38;;;;;;;0.30;0.30;;;9.50;99.90;;;;;;5051491;28;20419;-72
2022/03/31 01:57:04;;;;;;;1.35;1.30;;;9.50;99.90;;;;;;5051342;28;20112;-72
2022/03/31 01:59:38;;;;;;;0.20;0.20;;;9.60;99.90;;;;;;5033845;28;20108;-71
2022/03/31 02:02:05;;;;;;;1.10;1.10;;;9.70;99.90;;;;;;5033628;28;20076;-72
2022/03/31 02:04:31;;;;;;;0.43;0.43;;;9.60;99.90;;;;;;5034415;28;20056;-72
2022/03/31 02:06:57;;;;;;;0.20;0.20;;;9.20;99.90;;;;;;5055118;28;20040;-71
2022/03/31 02:09:23;;;;;;;0.20;0.20;;;9.20;99.90;;;;;;5055179;28;20033;-72
2022/03/31 02:11:49;;;;;;;0.20;0.20;;;9.30;99.90;;;;;;5055161;28;20032;-72
2022/03/31 02:14:15;;;;;;;0.20;0.20;;;9.30;99.90;;;;;;5055153;28;20384;-72
2022/03/31 02:16:41;;;;;;;0.20;0.20;;;9.30;99.90;;;;;;5054802;28;20028;-72
2022/03/31 02:19:07;;;;;;;0.20;0.20;;;9.40;99.90;;;;;;5055049;28;20032;-72
2022/03/31 02:21:33;;;;;;;0.60;0.60;;;9.30;99.90;;;;;;5055014;28;20031;-72
2022/03/31 02:23:59;;;;;;;0.20;0.20;;;9.30;99.90;;;;;;5054716;28;20494;-72
2022/03/31 02:26:24;;;;;;;0.20;0.20;;;9.40;99.90;;;;;;5054740;28;20017;-72
2022/03/31 02:28:50;;;;;;;0.10;0.10;;;9.40;99.90;;;;;;5037627;28;20029;-72
2022/03/31 02:31:16;;;;;;;2.75;0.95;;;9.50;99.90;;;;;;5055111;28;20151;-72
2022/03/31 02:33:42;;;;;;;0.20;0.20;;;9.40;99.90;;;;;;5054886;28;20221;-74
2022/03/31 02:36:08;;;;;;;0.20;0.20;;;9.10;99.90;;;;;;5020249;28;20029;-73
2022/03/31 02:38:35;;;;;;;0.30;0.30;;;9.00;99.90;;;;;;5054370;28;20052;-74
2022/03/31 02:41:01;;;;;;;0.52;0.52;;;9.00;99.90;;;;;;5054528;28;20021;-74
2022/03/31 02:43:27;;;;;;;0.20;0.20;;;9.10;99.90;;;;;;5053546;28;20100;-74
2022/03/31 02:45:52;;;;;;;0.30;0.30;;;9.10;99.90;;;;;;5054117;28;20052;-74
2022/03/31 02:48:18;;;;;;;0.17;0.17;;;9.20;99.90;;;;;;5054641;28;20037;-74
2022/03/31 02:50:44;;;;;;;0.30;0.30;;;9.10;99.90;;;;;;5054307;28;20021;-74
2022/03/31 02:55:55;;;;;;;0.20;0.20;;;9.20;99.90;;;;;;5036296;28;20032;-74
2022/03/31 02:58:21;;;;;;;0.75;0.75;;;9.20;99.90;;;;;;5036360;28;20029;-74
2022/03/31 03:00:48;;;;;;;0.20;0.20;;;9.20;99.90;;;;;;5054327;28;20103;-74
2022/03/31 03:03:14;;;;;;;20.63;2.72;;;9.30;99.90;;;;;;5054188;28;20017;-74
2022/03/31 03:05:42;;;;;;;0.20;0.20;;;9.30;99.90;;;;;;5054117;28;20033;-74
2022/03/31 03:08:08;;;;;;;0.20;0.20;;;9.30;99.90;;;;;;5036384;28;20032;-74
2022/03/31 03:10:34;;;;;;;0.20;0.20;;;9.40;99.90;;;;;;5036583;28;20032;-74
2022/03/31 03:13:00;;;;;;;2.45;2.35;;;9.20;99.90;;;;;;5036439;28;20029;-74
2022/03/31 03:15:26;;;;;;;0.32;0.32;;;9.30;99.90;;;;;;5053745;28;20100;-74
2022/03/31 03:17:52;;;;;;;0.20;0.20;;;9.20;99.90;;;;;;5036049;28;20036;-74
2022/03/31 03:20:18;;;;;;;0.38;0.38;;;9.20;99.90;;;;;;5053881;28;20384;-73
2022/03/31 03:22:48;;;;;;;0.40;0.40;;;9.20;99.90;;;;;;5053706;28;20094;-74
2022/03/31 03:25:15;;;;;;;0.20;0.20;;;9.20;99.90;;;;;;5036043;28;20032;-74
2022/03/31 03:27:42;;;;;;;1.77;1.65;;;9.30;99.90;;;;;;5053792;28;20060;-74
2022/03/31 03:30:09;;;;;;;0.20;0.20;;;9.40;99.90;;;;;;5035822;28;20052;-74
2022/03/31 03:32:36;;;;;;;0.68;0.68;;;9.30;99.90;;;;;;5019290;28;20036;-74
2022/03/31 03:35:07;;;;;;;0.20;0.20;;;9.30;99.90;;;;;;5053615;28;20025;-74
2022/03/31 03:37:33;;;;;;;0.73;0.73;;;9.30;99.90;;;;;;5053353;28;20100;-74
2022/03/31 03:40:02;;;;;;;0.20;0.20;;;9.30;99.90;;;;;;5053504;28;20544;-74
2022/03/31 03:42:28;;;;;;;0.47;0.47;;;9.20;99.90;;;;;;5035788;28;20613;-74
2022/03/31 03:44:54;;;;;;;0.20;0.20;;;9.20;99.90;;;;;;5053182;28;20380;-74
2022/03/31 03:47:21;;;;;;;0.10;0.10;;;9.20;99.90;;;;;;5035430;28;20021;-75
2022/03/31 03:49:47;;;;;;;0.20;0.20;;;9.30;99.90;;;;;;5035530;28;20111;-75
2022/03/31 03:52:13;;;;;;;0.13;0.13;;;9.40;99.90;;;;;;5018852;28;20063;-76
2022/03/31 03:54:39;;;;;;;0.20;0.20;;;9.50;99.90;;;;;;5053192;28;20032;-75
2022/03/31 03:57:05;;;;;;;0.20;0.20;;;9.60;99.90;;;;;;5052999;28;20029;-74
2022/03/31 03:59:31;;;;;;;0.47;0.47;;;9.60;99.90;;;;;;5035392;28;20025;-75
2022/03/31 04:01:59;;;;;;;0.20;0.20;;;9.60;99.90;;;;;;5035424;28;20029;-75
2022/03/31 04:04:25;;;;;;;0.20;0.20;;;9.60;99.90;;;;;;5035045;28;20032;-75
2022/03/31 04:06:51;;;;;;;0.20;0.20;;;9.70;99.90;;;;;;5052735;28;20048;-76
2022/03/31 04:09:17;;;;;;;0.20;0.20;;;9.60;99.90;;;;;;5052964;28;20056;-75
2022/03/31 04:11:43;;;;;;;0.28;0.28;;;9.60;99.90;;;;;;5052976;28;20033;-75
2022/03/31 04:14:09;;;;;;;0.20;0.20;;;9.70;99.90;;;;;;5035062;28;20035;-75
2022/03/31 04:16:34;;;;;;;3.08;2.88;;;9.60;99.90;;;;;;5052748;28;20025;-75
2022/03/31 04:19:00;;;;;;;0.30;0.30;;;9.70;99.90;;;;;;5052953;28;20017;-75
2022/03/31 04:21:26;;;;;;;1.20;0.77;;;9.70;99.90;;;;;;5052867;28;20036;-75
2022/03/31 04:23:52;;;;;;;3.63;2.50;;;9.70;99.90;;;;;;5052659;28;20025;-75
2022/03/31 04:26:17;;;;;;;0.20;0.20;;;9.50;99.90;;;;;;5034601;28;20488;-75
2022/03/31 04:28:43;;;;;;;0.95;0.95;;;9.50;99.90;;;;;;5052041;28;20031;-75
2022/03/31 04:31:09;;;;;;;1.88;1.77;;;9.40;99.90;;;;;;5034784;28;20025;-75
2022/03/31 04:33:34;;;;;;;0.75;0.75;;;9.20;99.90;;;;;;5034924;28;20477;-75
2022/03/31 04:36:00;;;;;;;1.15;0.88;;;9.00;99.90;;;;;;5051212;28;20038;-75
2022/03/31 04:38:26;;;;;;;0.35;0.25;;;9.00;99.90;;;;;;5052480;28;20519;-75
2022/03/31 04:40:52;;;;;;;0.20;0.20;;;8.90;99.90;;;;;;5034569;28;20032;-75
2022/03/31 04:43:17;;;;;;;0.30;0.30;;;8.90;99.90;;;;;;5052342;28;20075;-75
2022/03/31 04:45:43;;;;;;;0.10;0.10;;;8.90;99.90;;;;;;5050645;28;20421;-74
2022/03/31 04:48:09;;;;;;;0.20;0.20;;;9.00;99.90;;;;;;5052427;28;20107;-75
2022/03/31 04:50:35;;;;;;;0.10;0.10;;;9.00;99.90;;;;;;5052298;28;20446;-75
2022/03/31 04:53:00;;;;;;;1.95;1.80;;;8.90;99.90;;;;;;5052460;28;20029;-74
2022/03/31 04:55:26;;;;;;;2.45;1.27;;;8.70;99.90;;;;;;5052005;28;20401;-75
2022/03/31 04:57:53;;;;;;;1.88;1.77;;;8.60;99.90;;;;;;5052093;28;20037;-75
2022/03/31 05:00:18;;;;;;;88.22;79.47;;;8.70;99.90;;;;;;5034282;28;20029;-75
2022/03/31 05:02:44;;;;;;;2.72;1.90;;;8.70;99.90;;;;;;5052200;28;20056;-75
2022/03/31 05:05:12;;;;;;;0.30;0.30;;;8.60;99.90;;;;;;5052224;28;20508;-75
2022/03/31 05:07:38;;;;;;;0.20;0.20;;;8.80;99.90;;;;;;5034643;28;20384;-75
2022/03/31 05:10:05;;;;;;;4.30;2.17;;;8.80;99.90;;;;;;5052176;28;20032;-75
2022/03/31 05:12:31;;;;;;;0.20;0.20;;;9.10;99.90;;;;;;5050781;28;20021;-75
2022/03/31 05:14:56;;;;;;;1.65;1.38;;;9.20;99.90;;;;;;5034263;28;20479;-75
2022/03/31 05:17:22;;;;;;;1.05;1.05;;;9.20;99.90;;;;;;5051888;28;20064;-74
2022/03/31 05:19:48;;;;;;;0.20;0.20;;;9.10;99.90;;;;;;5052430;28;20025;-75
2022/03/31 05:22:14;;;;;;;0.77;0.32;;;8.90;99.90;;;;;;5052169;28;20034;-74
2022/03/31 05:24:39;;;;;;;0.47;0.47;;;8.90;99.90;;;;;;5050820;28;20436;-71
2022/03/31 05:27:05;;;;;;;0.50;0.50;;;8.80;99.90;;;;;;5034190;28;20025;-70
2022/03/31 05:29:31;;;;;;;0.20;0.20;;;8.80;99.90;;;;;;5051854;28;20053;-70
2022/03/31 05:31:59;;;;;;;1.33;1.23;;;8.80;99.90;;;;;;5033819;28;20131;-71
2022/03/31 05:34:25;;;;;;;0.22;0.22;;;9.00;99.90;;;;;;5051643;28;20025;-71
2022/03/31 05:36:51;;;;;;;0.40;0.40;;;9.10;99.90;;;;;;5051098;28;20021;-71
2022/03/31 05:39:17;;;;;;;0.20;0.20;;;9.00;99.90;;;;;;5053431;28;20496;-71
2022/03/31 05:41:43;;;;;;;0.52;0.52;;;9.00;99.90;;;;;;5055306;28;20025;-71
2022/03/31 05:44:08;;;;;;;0.10;0.10;;;9.00;99.90;;;;;;5055390;28;20036;-71
2022/03/31 05:46:34;;;;;;;1.50;1.33;;;9.20;99.90;;;;;;5054522;28;20465;-71
2022/03/31 05:49:00;;;;;;;0.98;0.98;;;9.20;99.90;;;;;;5055108;28;20052;-70
2022/03/31 05:51:26;;;;;;;4.43;4.00;;;9.20;99.90;;;;;;5055294;28;20028;-71
2022/03/31 05:53:52;;;;;;;5.38;1.05;;;9.20;99.90;;;;;;5037283;28;20024;-71
2022/03/31 05:56:19;;;;;;;1.10;0.85;;;9.30;99.90;;;;;;5055095;28;20055;-70
2022/03/31 05:58:45;;;;;;;0.30;0.30;;;9.30;99.90;;;;;;5055031;28;20040;-71
2022/03/31 06:01:11;;;;;;;0.30;0.30;;;9.30;99.90;;;;;;5055048;28;20396;-71
2022/03/31 06:03:37;;;;;;;0.20;0.20;;;9.40;99.90;;;;;;5037081;28;20021;-71
2022/03/31 06:06:02;;;;;;;1.77;1.73;;;9.40;99.90;;;;;;5054649;28;20074;-71
2022/03/31 06:08:28;;;;;;;0.20;0.20;;;9.40;99.90;;;;;;5054615;28;20465;-70
2022/03/31 06:10:54;;;;;;;2.28;2.08;;;9.10;99.90;;;;;;5035809;28;20055;-71
2022/03/31 06:13:20;;;;;;;0.35;0.35;;;9.10;99.90;;;;;;5054290;28;20032;-70
2022/03/31 06:15:45;;;;;;;0.20;0.20;;;9.20;99.90;;;;;;5036965;28;20027;-71
2022/03/31 06:18:12;;;;;;;0.20;0.20;;;9.20;99.90;;;;;;5055267;28;20024;-70
2022/03/31 06:20:38;;;;;;;0.70;0.63;;;9.30;99.90;;;;;;5053816;28;20517;-71
2022/03/31 06:23:04;;;;;;;0.20;0.20;;;9.30;99.90;;;;;;5053698;28;20097;-70
2022/03/31 06:25:30;;;;;;;0.20;0.20;;;9.10;99.90;;;;;;5036690;28;20048;-70
2022/03/31 06:27:56;;;;;;;0.20;0.20;;;9.10;99.90;;;;;;5054779;28;20025;-71
2022/03/31 06:30:22;;;;;;;0.10;0.10;;;9.10;99.90;;;;;;5054606;28;20032;-70
2022/03/31 06:32:48;;;;;;;0.22;0.22;;;9.30;99.90;;;;;;5054743;28;20017;-72
2022/03/31 06:35:15;;;;;;;3.80;3.60;;;9.30;99.90;;;;;;5053709;28;20388;-72
2022/03/31 06:37:45;;;;;;;0.20;0.20;;;9.30;99.90;;;;;;5054123;28;20029;-73
2022/03/31 06:40:15;;;;;;;0.20;0.20;;;9.20;99.90;;;;;;5054585;28;20067;-73
2022/03/31 06:42:43;;;;;;;0.88;0.88;;;9.20;99.90;;;;;;5036759;28;20024;-73
2022/03/31 06:45:12;;;;;;;0.20;0.20;;;9.30;99.90;;;;;;5055490;28;20045;-72
2022/03/31 06:47:39;;;;;;;0.28;0.28;;;9.20;99.90;;;;;;5055790;28;20052;-73
2022/03/31 06:50:06;;;;;;;0.20;0.20;;;9.20;99.90;;;;;;5053937;28;20388;-73
2022/03/31 06:52:32;;;;;;;3.53;1.77;;;9.10;99.90;;;;;;5036630;28;20079;-73
2022/03/31 06:54:58;;;;;;;0.20;0.20;;;9.20;99.90;;;;;;5055076;28;20028;-73
2022/03/31 06:57:23;;;;;;;0.63;0.63;;;9.20;99.90;;;;;;5055176;28;20021;-73
2022/03/31 06:59:50;;;;;;;0.20;0.20;;;9.20;99.90;;;;;;5053592;28;20029;-73
2022/03/31 07:02:15;;;;;;;0.20;0.20;;;9.20;99.90;;;;;;5050031;28;20051;-72
2022/03/31 07:04:41;;;;;;;7.88;2.30;;;9.30;99.90;;;;;;5026754;28;20470;-73
2022/03/31 07:07:07;;;;;;;0.13;0.13;;;9.40;99.90;;;;;;5026783;28;20041;-71
2022/03/31 07:09:33;;;;;;;1.40;1.30;;;9.20;99.90;;;;;;5045453;28;20029;-72
2022/03/31 07:11:59;;;;;;;0.20;0.20;;;9.10;99.90;;;;;;5044438;28;20071;-72
2022/03/31 07:14:25;;;;;;;0.20;0.20;;;9.20;99.90;;;;;;5044360;28;20056;-72
2022/03/31 07:16:51;;;;;;;0.20;0.20;;;9.30;99.90;;;;;;5043607;28;20039;-71
2022/03/31 07:19:17;;;;;;;0.75;0.73;;;9.20;99.90;;;;;;5044778;28;20039;-72
2022/03/31 07:21:43;;;;;;;0.20;0.20;;;9.20;99.90;;;;;;5043568;28;20032;-72
2022/03/31 07:24:09;;;;;;;0.20;0.20;;;9.20;99.90;;;;;;5044739;28;20028;-71
2022/03/31 07:26:36;;;;;;;0.30;0.30;;;9.20;99.90;;;;;;5047293;28;20116;-73
2022/03/31 07:29:03;;;;;;;0.15;0.15;;;9.30;99.90;;;;;;5072387;22;20044;-90
2022/03/31 07:31:38;;;;;;;0.20;0.20;;;9.40;99.90;;;;;;5034265;28;20032;-92
2022/03/31 07:34:09;;;;;;;0.20;0.20;;;9.40;99.90;;;;;;5034789;28;20084;-92
2022/03/31 07:36:35;;;;;;;0.38;0.38;;;9.40;99.90;;;;;;5034866;28;20052;-92
2022/03/31 07:39:20;;;;;;;0.77;0.75;;;9.30;99.90;;;;;;5043331;28;20067;-94
2022/03/31 07:42:08;;;;;;;0.35;0.35;;;9.20;99.90;;;;;;5055359;28;20418;-92
2022/03/31 07:44:53;;;;;;;0.25;0.25;;;9.10;99.90;;;;;;5056669;28;20032;-92
2022/03/31 07:50:59;;;;;;;1.50;1.40;;;9.00;99.90;;;;;;5090071;28;20039;-91
2022/03/31 07:54:10;;;;;;;1.10;0.82;;;9.10;99.90;;;;;;5075136;28;20036;-94
2022/03/31 07:57:15;;;;;;;;;;;;;;;;;;;;;
2022/03/31 08:03:04;;;;;;;0.38;0.38;;;9.40;99.90;;;;;;5071156;28;20683;-90
2022/03/31 08:06:18;;;;;;;;;;;;;;;;;;;;;
2022/03/31 08:08:44;;;;;;;0.65;0.65;;;9.30;99.90;;;;;;5071540;28;20036;-91
2022/03/31 08:11:13;;;;;;;0.10;0.10;;;9.30;99.90;;;;;;5056085;28;20039;-91
2022/03/31 08:13:44;;;;;;;0.38;0.38;;;9.20;99.90;;;;;;5056233;28;20047;-91
2022/03/31 08:16:25;;;;;;;0.10;0.10;;;9.30;99.90;;;;;;5077230;28;20028;-91
2022/03/31 08:19:03;;;;;;;2.30;2.17;;;9.40;99.90;;;;;;5073475;27;20040;-92
2022/03/31 08:21:28;;;;;;;0.63;0.63;;;9.30;99.90;;;;;;5070181;28;20039;-89
2022/03/31 08:23:54;;;;;;;0.45;0.45;;;9.30;99.90;;;;;;5058639;28;20735;-89
2022/03/31 08:26:24;;;;;;;0.20;0.20;;;9.40;99.90;;;;;;5055446;28;20120;-90
2022/03/31 08:29:13;;;;;;;0.30;0.30;;;9.50;99.90;;;;;;5053180;28;20591;-89
2022/03/31 08:32:12;;;;;;;0.20;0.20;;;9.70;99.90;;;;;;5051254;28;20131;-89
2022/03/31 08:34:44;;;;;;;0.70;0.45;;;9.80;99.90;;;;;;5052343;28;20686;-89
2022/03/31 08:37:13;;;;;;;15.40;2.28;;;9.90;99.90;;;;;;5049373;28;20040;-90
2022/03/31 08:39:39;;;;;;;0.13;0.13;;;9.90;99.90;;;;;;5020220;23;20045;-69
2022/03/31 08:42:06;;;;;;;0.75;0.47;;;9.90;99.90;;;;;;5020934;28;20029;-71
2022/03/31 08:44:35;;;;;;;0.35;0.35;;;9.80;99.90;;;;;;5021507;28;20034;-70
2022/03/31 08:47:00;;;;;;;0.20;0.20;;;9.80;99.90;;;;;;5020398;28;20029;-70
2022/03/31 08:49:27;;;;;;;0.32;0.32;;;9.90;99.90;;;;;;5022025;28;20029;-70
2022/03/31 08:51:53;;;;;;;0.20;0.20;;;10.00;99.90;;;;;;5003307;28;20444;-70
2022/03/31 08:54:19;;;;;;;0.35;0.35;;;9.90;99.90;;;;;;5020788;28;20441;-71
2022/03/31 08:56:45;;;;;;;0.50;0.50;;;9.90;99.90;;;;;;5021822;28;20144;-70
2022/03/31 08:59:12;;;;;;;0.30;0.30;;;9.90;99.90;;;;;;5023698;28;20109;-70
2022/03/31 09:01:39;;;;;;;0.43;0.43;;;10.00;99.90;;;;;;5002858;28;20036;-70
2022/03/31 09:04:06;;;;;;;0.43;0.43;;;10.00;99.90;;;;;;5022685;28;20144;-71
2022/03/31 09:06:32;;;;;;;0.68;0.68;;;10.10;99.90;;;;;;5020954;28;20033;-71
2022/03/31 09:09:00;;;;;;;0.10;0.10;;;10.10;99.90;;;;;;5022248;28;20029;-71
2022/03/31 09:11:31;;;;;;;2.25;1.98;;;10.10;99.90;;;;;;4986859;28;20030;-72
2022/03/31 09:13:59;;;;;;;0.23;0.23;;;10.00;99.90;;;;;;4988762;28;20034;-70
2022/03/31 09:16:36;;;;;;;3.72;0.85;;;9.70;99.90;;;;;;5024555;28;20558;-70
2022/03/31 09:19:15;;;;;;;0.20;0.20;;;9.60;99.90;;;;;;5006421;28;20109;-70
2022/03/31 09:21:52;;;;;;;0.20;0.20;;;9.70;99.90;;;;;;5025700;28;20126;-70
2022/03/31 09:24:20;;;;;;;0.22;0.22;;;9.80;99.90;;;;;;5024247;28;20039;-70
2022/03/31 09:26:47;;;;;;;2.35;2.15;;;9.90;99.90;;;;;;5025179;28;20030;-70
2022/03/31 09:29:14;;;;;;;0.50;0.50;;;10.00;99.90;;;;;;5024961;28;20042;-73
2022/03/31 09:31:41;;;;;;;0.43;0.43;;;9.90;99.90;;;;;;5007041;28;20095;-71
2022/03/31 09:34:08;;;;;;;0.98;0.75;;;9.90;99.90;;;;;;5024861;28;20064;-71
2022/03/31 09:36:35;;;;;;;1.55;1.48;;;9.80;99.90;;;;;;5025341;28;20095;-71
2022/03/31 09:39:07;;;;;;;1.08;0.77;;;9.70;99.90;;;;;;4989810;28;20409;-69
2022/03/31 09:41:35;;;;;;;0.50;0.50;;;9.80;99.90;;;;;;5007738;28;20053;-70
2022/03/31 09:44:04;;;;;;;0.10;0.10;;;9.80;99.90;;;;;;5025070;28;20560;-70
2022/03/31 09:46:33;;;;;;;0.10;0.10;;;9.80;99.90;;;;;;5025465;28;20022;-73
2022/03/31 09:49:09;;;;;;;0.13;0.13;;;9.80;99.90;;;;;;5010961;28;20040;-71
2022/03/31 09:51:35;;;;;;;0.20;0.20;;;9.90;99.90;;;;;;5028947;28;20017;-71
2022/03/31 09:54:01;;;;;;;0.20;0.20;;;9.80;99.90;;;;;;5028790;28;20084;-71
2022/03/31 09:56:27;;;;;;;0.10;0.10;;;9.70;99.90;;;;;;5010851;28;20036;-72
2022/03/31 09:58:56;;;;;;;1.10;1.10;;;9.60;99.90;;;;;;4994913;28;20029;-72
2022/03/31 10:01:22;;;;;;;0.20;0.20;;;9.60;99.90;;;;;;5027204;28;20112;-70
2022/03/31 10:03:49;;;;;;;2.92;1.48;;;9.60;99.90;;;;;;5024750;28;20480;-71
2022/03/31 10:06:16;;;;;;;0.20;0.20;;;9.50;99.90;;;;;;5024675;28;20037;-71
2022/03/31 10:08:44;;;;;;;5.03;2.20;;;9.40;99.90;;;;;;5024395;28;20025;-71
2022/03/31 10:11:11;;;;;;;0.20;0.20;;;9.40;99.90;;;;;;5023990;28;20087;-71
2022/03/31 10:13:45;;;;;;;0.52;0.52;;;9.40;99.90;;;;;;5023516;28;20041;-71
2022/03/31 10:16:17;;;;;;;0.10;0.10;;;9.50;99.90;;;;;;4990206;28;20383;-70
2022/03/31 10:18:47;;;;;;;2.20;1.07;;;9.50;99.90;;;;;;5024612;28;20485;-70
2022/03/31 10:21:13;;;;;;;0.30;0.30;;;9.40;99.90;;;;;;5023575;28;20032;-70
2022/03/31 10:26:33;;;;;;;5.50;1.05;;;9.40;99.90;;;;;;5022877;28;20029;-71
2022/03/31 10:29:02;;;;;;;0.20;0.20;;;9.50;99.90;;;;;;5005497;28;20515;-72
2022/03/31 10:31:41;;;;;;;0.10;0.10;;;9.50;99.90;;;;;;5024270;28;20035;-72
2022/03/31 10:34:08;;;;;;;0.20;0.20;;;9.60;99.90;;;;;;5005709;28;20072;-70
2022/03/31 10:36:45;;;;;;;0.90;0.40;;;9.50;99.90;;;;;;5023900;28;20032;-72
2022/03/31 10:39:21;;;;;;;0.20;0.20;;;9.50;99.90;;;;;;5004788;28;20076;-71
2022/03/31 10:42:00;;;;;;;0.65;0.65;;;9.50;99.90;;;;;;5005647;28;20057;-72
2022/03/31 10:44:26;;;;;;;0.50;0.50;;;9.50;99.90;;;;;;5005317;28;20026;-72
2022/03/31 10:47:02;;;;;;;0.40;0.40;;;9.60;99.90;;;;;;5005292;28;20025;-71
2022/03/31 10:49:28;;;;;;;0.20;0.20;;;9.60;99.90;;;;;;5021898;28;20053;-72
2022/03/31 10:51:55;;;;;;;0.20;0.20;;;9.60;99.90;;;;;;5024390;28;20018;-72
2022/03/31 10:54:30;;;;;;;0.25;0.25;;;9.60;99.90;;;;;;5022879;28;20834;-68
2022/03/31 10:57:08;;;;;;;1.02;1.02;;;9.70;99.90;;;;;;5023796;28;21132;-71
2022/03/31 10:59:35;;;;;;;0.20;0.20;;;9.70;99.90;;;;;;5005166;28;20116;-70
2022/03/31 11:02:15;;;;;;;0.75;0.75;;;9.70;99.90;;;;;;5024036;28;20037;-71
2022/03/31 11:04:47;;;;;;;0.35;0.35;;;9.80;99.90;;;;;;5005551;28;20060;-70
2022/03/31 11:07:15;;;;;;;1.70;1.60;;;9.70;99.90;;;;;;5023226;28;20155;-70
2022/03/31 11:09:42;;;;;;;0.10;0.10;;;9.80;99.90;;;;;;5023774;28;20135;-69
2022/03/31 11:12:19;;;;;;;2.83;1.10;;;9.80;99.90;;;;;;5006065;28;20168;-69
2022/03/31 11:14:53;;;;;;;0.40;0.40;;;9.90;99.90;;;;;;5023446;28;20029;-71
2022/03/31 11:17:20;;;;;;;0.20;0.20;;;9.70;99.90;;;;;;5023343;28;20068;-71
2022/03/31 11:19:45;;;;;;;0.20;0.20;;;9.80;99.90;;;;;;5022441;28;20034;-70
2022/03/31 11:22:18;;;;;;;1.48;1.48;;;9.80;99.90;;;;;;5023343;28;20044;-72
2022/03/31 11:24:44;;;;;;;0.90;0.65;;;9.80;99.90;;;;;;5023037;28;20025;-71
2022/03/31 11:27:10;;;;;;;0.20;0.20;;;9.80;99.90;;;;;;5023150;28;20087;-69
2022/03/31 11:29:36;;;;;;;0.60;0.60;;;9.50;99.90;;;;;;4988401;28;20033;-71
2022/03/31 11:32:02;;;;;;;1.58;1.42;;;9.70;99.90;;;;;;5003929;28;20037;-70
2022/03/31 11:34:28;;;;;;;0.20;0.20;;;9.70;99.90;;;;;;5022346;28;20535;-71
2022/03/31 11:36:55;;;;;;;0.10;0.10;;;9.70;99.90;;;;;;5005193;28;20527;-70
2022/03/31 11:39:28;;;;;;;0.40;0.40;;;9.80;99.90;;;;;;5021782;28;20524;-70
2022/03/31 11:41:55;;;;;;;1.45;0.98;;;9.90;99.90;;;;;;5022721;28;20033;-70
2022/03/31 11:44:22;;;;;;;0.63;0.63;;;10.00;99.90;;;;;;5022636;28;20021;-70
2022/03/31 11:46:49;;;;;;;1.38;1.38;;;10.10;99.90;;;;;;5022699;28;20040;-70
2022/03/31 11:49:26;;;;;;;0.35;0.35;;;10.10;99.90;;;;;;4988836;28;20033;-70
2022/03/31 11:52:01;;;;;;;0.10;0.10;;;10.00;99.90;;;;;;5022555;28;20033;-71
2022/03/31 11:54:29;;;;;;;3.08;1.08;;;9.90;99.90;;;;;;5031308;28;20057;-70
2022/03/31 11:57:03;;;;;;;0.20;0.20;;;9.70;99.90;;;;;;5011064;28;20025;-75
2022/03/31 11:59:29;;;;;;;0.10;0.10;;;9.70;99.90;;;;;;5022153;28;20439;-73
2022/03/31 12:01:56;;;;;;;1.00;1.00;;;9.60;99.90;;;;;;5022341;28;20030;-72
2022/03/31 12:04:27;;;;;;;0.30;0.30;;;9.60;99.90;;;;;;5004571;28;20083;-74
2022/03/31 12:06:55;;;;;;;0.10;0.10;;;9.60;99.90;;;;;;5004580;28;20061;-73
2022/03/31 12:09:25;;;;;;;7.20;4.00;;;9.70;99.90;;;;;;5023132;28;20112;-73
2022/03/31 12:11:53;;;;;;;3.65;2.42;;;9.50;99.90;;;;;;5005453;28;20443;-73
2022/03/31 12:14:19;;;;;;;0.10;0.10;;;9.30;99.90;;;;;;5005070;28;20527;-73
2022/03/31 12:16:57;;;;;;;2.42;1.40;;;9.30;99.90;;;;;;5005047;28;20393;-74
2022/03/31 12:19:23;;;;;;;0.10;0.10;;;9.50;99.90;;;;;;5002663;28;20041;-75
2022/03/31 12:21:53;;;;;;;0.25;0.25;;;9.70;99.90;;;;;;5022021;28;20656;-74
2022/03/31 12:24:19;;;;;;;0.57;0.47;;;9.60;99.90;;;;;;5021206;28;20500;-74
2022/03/31 12:26:54;;;;;;;0.90;0.90;;;9.70;99.90;;;;;;5002174;28;20520;-72
2022/03/31 12:29:20;;;;;;;1.20;1.20;;;9.70;99.90;;;;;;5020658;28;20433;-72
2022/03/31 12:31:46;;;;;;;2.85;2.50;;;9.60;99.90;;;;;;5019511;28;20096;-73
2022/03/31 12:34:12;;;;;;;1.17;1.10;;;9.30;99.90;;;;;;5020461;28;20030;-74
2022/03/31 12:36:38;;;;;;;0.82;0.68;;;9.30;99.90;;;;;;5018046;28;20068;-73
2022/03/31 12:39:05;;;;;;;4.07;2.22;;;9.30;99.90;;;;;;5002050;28;20501;-73
2022/03/31 12:41:34;;;;;;;1.45;1.02;;;9.30;99.90;;;;;;5017962;28;20397;-73
2022/03/31 12:44:15;;;;;;;2.05;0.68;;;9.40;99.90;;;;;;5002170;28;20025;-73
2022/03/31 12:46:51;;;;;;;0.85;0.45;;;9.40;99.90;;;;;;5001902;28;20034;-72
2022/03/31 12:49:20;;;;;;;0.30;0.30;;;9.40;99.90;;;;;;5019523;28;20532;-73
2022/03/31 12:51:59;;;;;;;0.20;0.20;;;9.50;99.90;;;;;;5019598;28;20041;-73
2022/03/31 12:54:59;;;;;;;0.90;0.82;;;9.60;99.90;;;;;;5002436;28;20117;-74
2022/03/31 12:57:28;;;;;;;0.32;0.32;;;9.50;99.90;;;;;;4979651;28;20132;-71
2022/03/31 13:00:13;;;;;;;0.10;0.10;;;9.40;99.90;;;;;;5020549;28;20038;-73
2022/03/31 13:02:43;;;;;;;3.97;2.85;;;9.40;99.90;;;;;;5020424;28;20049;-73
2022/03/31 13:05:09;;;;;;;1.75;1.35;;;9.30;99.90;;;;;;5019902;28;20160;-73
2022/03/31 13:07:35;;;;;;;1.10;0.70;;;9.10;99.90;;;;;;5019792;28;20619;-73
2022/03/31 13:10:06;;;;;;;0.10;0.10;;;9.10;99.90;;;;;;5020071;28;20408;-73
2022/03/31 13:12:32;;;;;;;6.75;6.10;;;9.10;99.90;;;;;;5019826;28;20056;-73
2022/03/31 13:15:00;;;;;;;3.72;1.27;;;9.00;99.90;;;;;;5001954;28;20097;-73
2022/03/31 13:17:27;;;;;;;0.93;0.90;;;9.00;99.90;;;;;;5019763;28;20060;-73
2022/03/31 13:19:53;;;;;;;0.40;0.40;;;9.00;99.90;;;;;;5002157;28;20025;-73